Zionhill, Pennsylvania
Current Conditions -  °F | °C
As of 5:35 PM on Monday 24 Nov 2014 (Local Time) from KUKT Reporting Station
Clear Clear  
Wind Chill: 64°   Ceiling: Unl
Heat Index: 64°   Visibility: 10mi
Dew Point: 55°   Wind: 8mph
Humidity: 73%   Direction: 210°SSW
Pressure: 29.65"   Gusts: NA
Location:  40.48°N, 75.39°W
Report Text: KUKT 242235Z AUTO 21007KT 10SM CLR 18/13 A2965 RMK AO1
Loading
Personal Weather Stations






























Interactive Weather Map New forecast layout! Learn more

10-Day Weather Forecast

Advertisements
Track Severe Weather on mobile